Terminal Aerodrome Forecast
Issued by NWS Pendleton, OR

Home | Current Version | Previous Version | Text Only | Print | Product List | Glossary On
Versions: 1 2 3 4 5 6 7 8 9 10 11 12 13 14
573
FTUS46 KPDT 281720
TAFPDT
TAF
KPDT 281720Z 2818/2918 29008KT P6SM FEW250
     FM290000 32008KT P6SM FEW250
     FM290500 14007KT P6SM FEW140 SCT250=

USA.gov is the U.S. government's official web portal to all federal, state and local government web resources and services.